| time (UTC) | temp F | wind direction | speed MPH | gust MPH | rain 1hr in | rain 24hr in | rain mn in | humidity % | barometer mb |
| 20260507101531 | 64 | 240 | 1.0 | 3.0 | 0.04 | 0.59 | 0.14 | 99 | 1010.1 |
| 20260507100030 | 64 | 88 | 0.0 | 3.0 | 0.05 | 0.59 | 0.14 | 100 | 1009.7 |
| 20260507094533 | 64 | 94 | 0.0 | 4.0 | 0.07 | 0.59 | 0.14 | 99 | 1009.7 |
| 20260507093033 | 64 | 94 | 0.0 | 1.0 | 0.08 | 0.59 | 0.14 | 99 | 1009.8 |
| 20260507091527 | 64 | 86 | 0.0 | 2.0 | 0.04 | 0.55 | 0.10 | 99 | 1009.8 |
| 20260507090025 | 64 | 63 | 1.0 | 5.0 | 0.03 | 0.54 | 0.09 | 99 | 1009.6 |
| 20260507084529 | 64 | 101 | 0.0 | 3.0 | 0.01 | 0.52 | 0.07 | 99 | 1009.8 |
| 20260507083022 | 65 | 212 | 0.0 | 2.0 | 0.00 | 0.51 | 0.06 | 100 | 1009.3 |
| 20260507081533 | 65 | 223 | 0.0 | 2.0 | 0.00 | 0.51 | 0.06 | 99 | 1009.2 |
| 20260507080019 | 65 | 232 | 0.0 | 1.0 | 0.03 | 0.51 | 0.06 | 100 | 1009.2 |
| 20260507074518 | 65 | 240 | 0.0 | 2.0 | 0.05 | 0.51 | 0.06 | 100 | 1009.5 |
| 20260507073017 | 66 | 30 | 0.0 | 2.0 | 0.05 | 0.51 | 0.06 | 100 | 1009.5 |
| 20260507071516 | 66 | 312 | 0.0 | 3.0 | 0.05 | 0.51 | 0.06 | 99 | 1009.3 |
| 20260507070015 | 66 | 328 | 2.0 | 4.0 | 0.02 | 0.48 | 0.03 | 100 | 1009.3 |
| 20260507064512 | 66 | 109 | 0.0 | 1.0 | 0.00 | 0.46 | 0.01 | 100 | 1010.3 |
| 20260507063012 | 66 | 109 | 0.0 | 3.0 | 0.00 | 0.46 | 0.01 | 100 | 1010.0 |
| 20260507061510 | 66 | 109 | 0.0 | 2.0 | 0.01 | 0.46 | 0.01 | 100 | 1010.4 |
| 20260507060008 | 66 | 109 | 0.0 | 3.0 | 0.01 | 0.46 | 0.01 | 99 | 1010.5 |
| 20260507054509 | 66 | 112 | 0.0 | 1.0 | 0.01 | 0.46 | 0.01 | 99 | 1011.0 |
| 20260507053006 | 66 | 112 | 0.0 | 2.0 | 0.02 | 0.46 | 0.01 | 99 | 1011.0 |
| 20260507051505 | 66 | 112 | 0.0 | 3.0 | 0.01 | 0.45 | 0.00 | 99 | 1011.1 |
| 20260507050003 | 66 | 112 | 0.0 | 2.0 | 0.05 | 0.45 | 0.00 | 99 | 1010.8 |
| 20260507044500 | 66 | 85 | 1.0 | 2.0 | 0.09 | 0.45 | 0.45 | 99 | 1010.7 |
| 20260507043123 | 67 | 85 | 0.0 | 4.0 | 0.10 | 0.44 | 0.44 | 99 | 1011.0 |
| 20260507041604 | 67 | 98 | 0.0 | 3.0 | 0.12 | 0.44 | 0.44 | 99 | 1011.6 |
| 20260507040059 | 67 | 98 | 0.0 | 2.0 | 0.12 | 0.40 | 0.40 | 99 | 1010.7 |
| 20260507034559 | 67 | 98 | 0.0 | 2.0 | 0.16 | 0.36 | 0.36 | 99 | 1011.0 |
| 20260507033057 | 67 | 98 | 0.0 | 2.0 | 0.15 | 0.34 | 0.34 | 99 | 1010.6 |
| 20260507031556 | 67 | 89 | 0.0 | 3.0 | 0.14 | 0.32 | 0.32 | 99 | 1011.8 |
| 20260507030056 | 67 | 88 | 1.0 | 2.0 | 0.12 | 0.27 | 0.27 | 99 | 1012.4 |
| 20260507024557 | 67 | 88 | 0.0 | 2.0 | 0.06 | 0.20 | 0.20 | 98 | 1012.1 |
| 20260507023108 | 67 | 88 | 0.0 | 4.0 | 0.05 | 0.19 | 0.19 | 97 | 1011.5 |
| 20260507021554 | 69 | 297 | 1.0 | 3.0 | 0.03 | 0.17 | 0.17 | 96 | 1011.5 |
| 20260507020059 | 71 | 317 | 1.0 | 8.0 | 0.00 | 0.14 | 0.14 | 99 | 1010.9 |
| 20260507014556 | 71 | 183 | 0.0 | 2.0 | 0.00 | 0.14 | 0.14 | 99 | 1010.8 |
| 20260507013052 | 71 | 183 | 0.0 | 1.0 | 0.00 | 0.14 | 0.14 | 99 | 1010.4 |
| 20260507011552 | 71 | 183 | 0.0 | 0.0 | 0.00 | 0.14 | 0.14 | 99 | 1010.5 |
| 20260507010051 | 72 | 183 | 0.0 | 2.0 | 0.00 | 0.14 | 0.14 | 99 | 1009.9 |
| 20260507004550 | 72 | 188 | 0.0 | 0.0 | 0.00 | 0.14 | 0.14 | 99 | 1010.6 |
| 20260507003056 | 72 | 188 | 0.0 | 0.0 | 0.00 | 0.14 | 0.14 | 98 | 1010.5 |
| 20260507001609 | 72 | 188 | 0.0 | 0.0 | 0.00 | 0.14 | 0.14 | 98 | 1010.3 |
| 20260507000047 | 72 | 188 | 0.0 | 0.0 | 0.00 | 0.14 | 0.14 | 98 | 1010.2 |
| 20260506234553 | 72 | 188 | 0.0 | 1.0 | 0.00 | 0.14 | 0.14 | 98 | 1010.0 |
| 20260506233044 | 72 | 188 | 0.0 | 1.0 | 0.00 | 0.14 | 0.14 | 98 | 1010.5 |
| 20260506231544 | 72 | 202 | 0.0 | 2.0 | 0.00 | 0.14 | 0.14 | 98 | 1011.0 |
| 20260506230053 | 73 | 198 | 0.0 | 5.0 | 0.00 | 0.14 | 0.14 | 98 | 1011.1 |
| 20260506224542 | 72 | 144 | 0.0 | 2.0 | 0.01 | 0.14 | 0.14 | 98 | 1010.9 |
| 20260506223041 | 72 | 186 | 0.0 | 2.0 | 0.01 | 0.14 | 0.14 | 97 | 1010.7 |
| 20260506221549 | 72 | 190 | 0.0 | 1.0 | 0.01 | 0.14 | 0.14 | 97 | 1010.6 |
| 20260506220039 | 72 | 172 | 0.0 | 1.0 | 0.07 | 0.14 | 0.14 | 97 | 1010.9 |
| 20260506214539 | 72 | 66 | 0.0 | 4.0 | 0.13 | 0.13 | 0.13 | 96 | 1011.0 |
| 20260506213037 | 73 | 175 | 0.0 | 3.0 | 0.13 | 0.13 | 0.13 | 96 | 1010.9 |
| 20260506211536 | 73 | 134 | 0.0 | 3.0 | 0.13 | 0.13 | 0.13 | 95 | 1011.2 |
| 20260506210049 | 74 | 327 | 0.0 | 3.0 | 0.07 | 0.07 | 0.07 | 92 | 1011.5 |
| 20260506204534 | 75 | 175 | 0.0 | 2.0 | 0.00 | 0.00 | 0.00 | 89 | 1011.3 |
| 20260506203036 | 75 | 176 | 0.0 | 3.0 | 0.00 | 0.00 | 0.00 | 86 | 1011.2 |
| 20260506201532 | 76 | 201 | 0.0 | 10.0 | 0.00 | 0.00 | 0.00 | 85 | 1011.5 |
| 20260506200033 | 77 | 198 | 1.0 | 3.0 | 0.00 | 0.00 | 0.00 | 84 | 1011.6 |
| 20260506194531 | 76 | 170 | 0.0 | 3.0 | 0.00 | 0.00 | 0.00 | 84 | 1012.0 |
| 20260506193037 | 76 | 218 | 1.0 | 4.0 | 0.00 | 0.00 | 0.00 | 83 | 1012.4 |
| 20260506191530 | 76 | 186 | 0.0 | 9.0 | 0.00 | 0.00 | 0.00 | 83 | 1012.6 |
| 20260506190032 | 76 | 212 | 0.0 | 4.0 | 0.00 | 0.00 | 0.00 | 82 | 1012.7 |
| 20260506184537 | 77 | 317 | 0.0 | 4.0 | 0.00 | 0.00 | 0.00 | 82 | 1012.7 |
| 20260506183028 | 77 | 161 | 0.0 | 4.0 | 0.00 | 0.00 | 0.00 | 82 | 1012.9 |
| 20260506181537 | 77 | 202 | 2.0 | 7.0 | 0.00 | 0.00 | 0.00 | 81 | 1012.9 |
| 20260506180028 | 78 | 161 | 2.0 | 6.0 | 0.00 | 0.00 | 0.00 | 79 | 1012.9 |
| 20260506174533 | 78 | 148 | 2.0 | 7.0 | 0.00 | 0.00 | 0.00 | 79 | 1013.0 |
| 20260506173028 | 78 | 149 | 1.0 | 8.0 | 0.00 | 0.00 | 0.00 | 77 | 1013.1 |
| 20260506171532 | 79 | 320 | 2.0 | 10.0 | 0.00 | 0.00 | 0.00 | 76 | 1013.2 |
| 20260506170029 | 78 | 319 | 2.0 | 9.0 | 0.00 | 0.00 | 0.00 | 79 | 1013.1 |
| 20260506164542 | 77 | 317 | 3.0 | 8.0 | 0.00 | 0.00 | 0.00 | 77 | 1013.2 |
| 20260506163025 | 79 | 169 | 2.0 | 9.0 | 0.00 | 0.00 | 0.00 | 76 | 1013.2 |
| 20260506161523 | 79 | 134 | 1.0 | 5.0 | 0.00 | 0.00 | 0.00 | 77 | 1013.1 |
| 20260506160019 | 78 | 275 | 2.0 | 5.0 | 0.00 | 0.00 | 0.00 | 77 | 1013.1 |
| 20260506154518 | 78 | 136 | 0.0 | 5.0 | 0.00 | 0.00 | 0.00 | 77 | 1013.2 |
| 20260506153014 | 76 | 179 | 2.0 | 7.0 | 0.00 | 0.00 | 0.00 | 79 | 1013.2 |
| 20260506151514 | 75 | 146 | 1.0 | 4.0 | 0.00 | 0.00 | 0.00 | 81 | 1013.4 |
| 20260506150007 | 74 | 289 | 1.0 | 6.0 | 0.00 | 0.00 | 0.00 | 82 | 1013.5 |
| 20260506144506 | 74 | 240 | 2.0 | 8.0 | 0.00 | 0.00 | 0.00 | 84 | 1013.6 |
| 20260506143101 | 72 | 319 | 0.0 | 8.0 | 0.00 | 0.00 | 0.00 | 85 | 1013.6 |
| 20260506141558 | 72 | 189 | 1.0 | 5.0 | 0.00 | 0.00 | 0.00 | 86 | 1013.5 |
| 20260506140056 | 71 | 221 | 2.0 | 7.0 | 0.00 | 0.00 | 0.00 | 87 | 1013.6 |
| 20260506134555 | 70 | 188 | 1.0 | 5.0 | 0.00 | 0.00 | 0.00 | 88 | 1013.7 |
| 20260506133108 | 70 | 209 | 1.0 | 6.0 | 0.00 | 0.00 | 0.00 | 89 | 1013.9 |
| 20260506131613 | 69 | 131 | 1.0 | 8.0 | 0.00 | 0.00 | 0.00 | 90 | 1013.9 |
| 20260506130051 | 68 | 207 | 1.0 | 5.0 | 0.00 | 0.00 | 0.00 | 91 | 1014.0 |
| 20260506124550 | 68 | 161 | 0.0 | 6.0 | 0.00 | 0.00 | 0.00 | 91 | 1013.9 |
| 20260506123047 | 67 | 320 | 1.0 | 10.0 | 0.00 | 0.00 | 0.00 | 91 | 1013.7 |
| 20260506121553 | 67 | 173 | 0.0 | 4.0 | 0.00 | 0.00 | 0.00 | 90 | 1013.6 |
| 20260506120056 | 67 | 343 | 0.0 | 4.0 | 0.00 | 0.00 | 0.00 | 90 | 1013.2 |
| 20260506114540 | 67 | 176 | 0.0 | 8.0 | 0.00 | 0.00 | 0.00 | 90 | 1013.1 |
| 20260506113037 | 67 | 208 | 0.0 | 3.0 | 0.00 | 0.00 | 0.00 | 90 | 1012.6 |
| 20260506111541 | 67 | 151 | 0.0 | 3.0 | 0.00 | 0.00 | 0.00 | 89 | 1012.6 |
| 20260506110035 | 67 | 204 | 0.0 | 7.0 | 0.00 | 0.00 | 0.00 | 89 | 1012.5 |
| 20260506104542 | 67 | 142 | 0.0 | 3.0 | 0.00 | 0.00 | 0.00 | 89 | 1012.2 |
| 20260506103039 | 67 | 211 | 0.0 | 4.0 | 0.00 | 0.00 | 0.00 | 88 | 1012.1 |